WXM80 ListenWXM80 Stop

You find our weather info also at:

UK Metoffice

WeatherCloud

Weather Underground

Northeastern Weather Network

AWEKAS

Citizen Weather Observer Program (CWOP)

HAMweather, WeatherForYou, PWS Weather


Weather Underground History page Text

Daily Summary for March 28, 2017 Units:  English    Metric   Both
« Previous Day
Next Day »
Daily Weekly Monthly Yearly Custom
  High: Low: Average:
Temperature: 41.6 °F 39.3 °F 40.2 °F
Dew Point: 41.1 °F 38.8 °F 39.7 °F
Humidity: 98 % 98 % 98 %
Wind Speed: 11.0 mph 0.0 mph 4.4 mph
Wind Gust: 17.3 mph - -
Wind:- - ENE
Pressure: 29.99 in 29.85 in -
Precipitation: 0.00 in    
Historical Graphs
 
 
Tabular Data for March 28, 2017
Time Temperature Dew Point Pressure Wind Wind Speed Wind Gust Humidity Rainfall Rate (Hourly)
00:02 41.0 °F 40.5 °F 29.99 in East 5.4 mph 6.0 mph 98 % 0.00 in
00:07 41.1 °F 40.6 °F 29.99 in East 5.8 mph 6.9 mph 98 % 0.00 in
00:12 41.1 °F 40.6 °F 29.99 in East 4.5 mph 5.8 mph 98 % 0.00 in
00:17 41.1 °F 40.6 °F 29.99 in East 4.0 mph 6.9 mph 98 % 0.00 in
00:22 41.1 °F 40.6 °F 29.99 in East 4.4 mph 5.8 mph 98 % 0.00 in
00:27 41.1 °F 40.6 °F 29.99 in East 2.0 mph 6.0 mph 98 % 0.00 in
00:32 41.2 °F 40.7 °F 29.99 in East 3.0 mph 5.0 mph 98 % 0.00 in
00:37 41.2 °F 40.7 °F 29.99 in East 1.0 mph 3.0 mph 98 % 0.00 in
00:42 41.3 °F 40.8 °F 29.98 in East 2.0 mph 5.0 mph 98 % 0.00 in
00:47 41.4 °F 40.9 °F 29.98 in East 2.0 mph 5.0 mph 98 % 0.00 in
00:52 41.5 °F 41.0 °F 29.98 in East 2.0 mph 5.0 mph 98 % 0.00 in
00:57 41.5 °F 41.0 °F 29.98 in East 2.7 mph 5.0 mph 98 % 0.00 in
01:02 41.6 °F 41.1 °F 29.98 in East 3.0 mph 4.6 mph 98 % 0.00 in
01:07 41.6 °F 41.1 °F 29.98 in East 2.0 mph 5.0 mph 98 % 0.00 in
01:12 41.6 °F 41.1 °F 29.98 in East 2.1 mph 3.5 mph 98 % 0.00 in
01:17 41.6 °F 41.1 °F 29.97 in ENE 2.5 mph 3.5 mph 98 % 0.00 in
01:22 41.6 °F 41.1 °F 29.97 in ENE 2.9 mph 3.5 mph 98 % 0.00 in
01:27 41.5 °F 41.0 °F 29.97 in ENE 2.0 mph 4.0 mph 98 % 0.00 in
01:32 41.5 °F 41.0 °F 29.97 in ENE 2.1 mph 3.5 mph 98 % 0.00 in
01:37 41.4 °F 40.9 °F 29.96 in ENE 2.0 mph 4.0 mph 98 % 0.00 in
01:42 41.5 °F 41.0 °F 29.96 in ENE 2.0 mph 4.0 mph 98 % 0.00 in
01:47 41.5 °F 41.0 °F 29.96 in ENE 3.0 mph 4.0 mph 98 % 0.00 in
01:52 41.4 °F 40.9 °F 29.96 in ENE 3.0 mph 5.0 mph 98 % 0.00 in
01:57 41.4 °F 40.9 °F 29.96 in ENE 2.5 mph 3.5 mph 98 % 0.00 in
02:02 41.4 °F 40.9 °F 29.96 in East 3.0 mph 6.0 mph 98 % 0.00 in
02:07 41.4 °F 40.9 °F 29.96 in East 3.0 mph 6.0 mph 98 % 0.00 in
02:12 41.4 °F 40.9 °F 29.95 in ENE 3.0 mph 6.0 mph 98 % 0.00 in
02:17 41.5 °F 41.0 °F 29.95 in ENE 3.0 mph 6.0 mph 98 % 0.00 in
02:22 41.5 °F 41.0 °F 29.95 in ENE 2.0 mph 6.0 mph 98 % 0.00 in
02:27 41.4 °F 40.9 °F 29.95 in ENE 2.0 mph 3.0 mph 98 % 0.00 in
02:32 41.4 °F 40.9 °F 29.95 in ENE 2.0 mph 4.0 mph 98 % 0.00 in
02:37 41.3 °F 40.8 °F 29.95 in ENE 2.0 mph 4.0 mph 98 % 0.00 in
02:42 41.2 °F 40.7 °F 29.94 in ENE 3.0 mph 5.0 mph 98 % 0.00 in
02:47 41.2 °F 40.7 °F 29.94 in ENE 3.0 mph 5.0 mph 98 % 0.00 in
02:52 41.1 °F 40.6 °F 29.93 in East 5.0 mph 7.0 mph 98 % 0.00 in
02:57 41.1 °F 40.6 °F 29.93 in ENE 4.9 mph 7.0 mph 98 % 0.00 in
03:02 41.0 °F 40.5 °F 29.93 in East 5.7 mph 7.0 mph 98 % 0.00 in
03:07 40.9 °F 40.4 °F 29.93 in ENE 4.8 mph 6.9 mph 98 % 0.00 in
03:12 40.8 °F 40.3 °F 29.94 in ENE 4.1 mph 6.9 mph 98 % 0.00 in
03:17 40.6 °F 40.1 °F 29.93 in NE 5.9 mph 8.0 mph 98 % 0.00 in
03:22 40.5 °F 40.0 °F 29.93 in ENE 4.5 mph 6.9 mph 98 % 0.00 in
03:27 40.4 °F 39.9 °F 29.94 in ENE 4.6 mph 8.1 mph 98 % 0.00 in
03:30 40.3 °F 39.8 °F 29.93 in ENE 4.3 mph 6.0 mph 98 % 0.00 in
03:35 40.2 °F 39.7 °F 29.93 in East 5.5 mph 6.0 mph 98 % 0.00 in
03:40 40.2 °F 39.7 °F 29.93 in East 4.6 mph 5.8 mph 98 % 0.00 in
03:45 40.2 °F 39.7 °F 29.93 in East 5.0 mph 7.0 mph 98 % 0.00 in
03:50 40.1 °F 39.6 °F 29.94 in NE 3.2 mph 5.0 mph 98 % 0.00 in
03:55 40.1 °F 39.6 °F 29.94 in ENE 2.7 mph 4.6 mph 98 % 0.00 in
04:00 40.1 °F 39.6 °F 29.93 in East 4.3 mph 8.1 mph 98 % 0.00 in
04:05 40.0 °F 39.5 °F 29.92 in East 5.2 mph 6.9 mph 98 % 0.00 in
04:10 40.1 °F 39.6 °F 29.92 in ENE 5.8 mph 8.1 mph 98 % 0.00 in
04:15 40.0 °F 39.5 °F 29.93 in ENE 2.6 mph 4.6 mph 98 % 0.00 in
04:17 40.0 °F 39.5 °F 29.94 in NNW 1.9 mph 4.0 mph 98 % 0.00 in
04:22 40.0 °F 39.5 °F 29.94 in ENE 2.6 mph 5.8 mph 98 % 0.00 in
04:27 39.9 °F 39.4 °F 29.92 in East 5.7 mph 6.9 mph 98 % 0.00 in
04:32 39.9 °F 39.4 °F 29.92 in NE 5.7 mph 9.2 mph 98 % 0.00 in
04:37 39.8 °F 39.3 °F 29.93 in East 1.7 mph 8.1 mph 98 % 0.00 in
04:42 39.8 °F 39.3 °F 29.93 in ENE 4.3 mph 6.9 mph 98 % 0.00 in
04:47 39.8 °F 39.3 °F 29.93 in East 3.6 mph 5.0 mph 98 % 0.00 in
04:52 39.9 °F 39.4 °F 29.92 in East 4.4 mph 5.8 mph 98 % 0.00 in
04:57 40.0 °F 39.5 °F 29.91 in East 6.2 mph 9.2 mph 98 % 0.00 in
05:02 40.1 °F 39.6 °F 29.93 in Calm   1.2 mph 98 % 0.00 in
05:07 40.1 °F 39.6 °F 29.93 in East 0.7 mph 1.2 mph 98 % 0.00 in
05:12 40.2 °F 39.7 °F 29.93 in ESE 1.7 mph 3.5 mph 98 % 0.00 in
05:13 40.2 °F 39.7 °F 29.93 in East 2.4 mph 5.0 mph 98 % 0.00 in
05:18 40.4 °F 39.9 °F 29.92 in East 4.0 mph 5.8 mph 98 % 0.00 in
05:23 40.5 °F 40.0 °F 29.92 in East 0.3 mph 3.5 mph 98 % 0.00 in
05:28 40.6 °F 40.1 °F 29.97 in NNW 6.4 mph 11.5 mph 98 % 0.00 in
05:33 40.5 °F 40.0 °F 29.94 in North 3.9 mph 5.0 mph 98 % 0.00 in
05:38 40.4 °F 39.9 °F 29.96 in NNW 2.5 mph 5.0 mph 98 % 0.00 in
05:43 40.3 °F 39.8 °F 29.96 in NNE 4.1 mph 5.8 mph 98 % 0.00 in
05:48 40.2 °F 39.7 °F 29.94 in ENE 4.5 mph 8.1 mph 98 % 0.00 in
05:53 40.0 °F 39.5 °F 29.94 in East 0.7 mph 5.8 mph 98 % 0.00 in
05:58 39.9 °F 39.4 °F 29.94 in East 2.3 mph 5.0 mph 98 % 0.00 in
06:03 39.9 °F 39.4 °F 29.94 in East 2.0 mph 3.5 mph 98 % 0.00 in
06:08 39.9 °F 39.4 °F 29.94 in ENE 4.5 mph 6.9 mph 98 % 0.00 in
06:13 39.8 °F 39.3 °F 29.94 in North 3.6 mph 5.0 mph 98 % 0.00 in
06:18 39.8 °F 39.3 °F 29.93 in East 5.0 mph 6.9 mph 98 % 0.00 in
06:23 39.7 °F 39.2 °F 29.93 in East 2.5 mph 5.8 mph 98 % 0.00 in
06:28 39.7 °F 39.2 °F 29.94 in ENE 2.5 mph 3.0 mph 98 % 0.00 in
06:33 39.6 °F 39.1 °F 29.93 in East 6.4 mph 8.1 mph 98 % 0.00 in
06:38 39.6 °F 39.1 °F 29.93 in East 3.3 mph 6.9 mph 98 % 0.00 in
06:43 39.5 °F 39.0 °F 29.94 in ENE 6.4 mph 8.1 mph 98 % 0.00 in
06:48 39.6 °F 39.1 °F 29.93 in ENE 3.8 mph 6.9 mph 98 % 0.00 in
06:53 39.5 °F 39.0 °F 29.94 in ENE 5.2 mph 6.9 mph 98 % 0.00 in
06:58 39.6 °F 39.1 °F 29.93 in ESE 6.9 mph 9.2 mph 98 % 0.00 in
07:04 39.6 °F 39.1 °F 29.93 in ENE 4.6 mph 8.1 mph 98 % 0.00 in
07:09 39.5 °F 39.0 °F 29.94 in ENE 4.8 mph 9.2 mph 98 % 0.00 in
07:14 39.5 °F 39.0 °F 29.94 in ENE 3.3 mph 4.0 mph 98 % 0.00 in
07:19 39.5 °F 39.0 °F 29.94 in East 3.9 mph 5.0 mph 98 % 0.00 in
07:24 39.5 °F 39.0 °F 29.94 in ENE 1.6 mph 3.5 mph 98 % 0.00 in
07:29 39.5 °F 39.0 °F 29.94 in ENE 4.8 mph 8.0 mph 98 % 0.00 in
07:34 39.5 °F 39.0 °F 29.94 in East 4.0 mph 6.0 mph 98 % 0.00 in
07:39 39.6 °F 39.1 °F 29.94 in East 3.7 mph 4.6 mph 98 % 0.00 in
07:44 39.6 °F 39.1 °F 29.94 in East 4.1 mph 5.8 mph 98 % 0.00 in
07:49 39.7 °F 39.2 °F 29.94 in ENE 2.7 mph 3.5 mph 98 % 0.00 in
07:54 39.8 °F 39.3 °F 29.94 in ENE 3.6 mph 4.6 mph 98 % 0.00 in
07:59 39.8 °F 39.3 °F 29.94 in ENE 2.7 mph 3.5 mph 98 % 0.00 in
08:04 39.8 °F 39.3 °F 29.94 in ENE 3.1 mph 3.5 mph 98 % 0.00 in
08:09 39.8 °F 39.3 °F 29.94 in East 2.8 mph 4.6 mph 98 % 0.00 in
08:14 39.8 °F 39.3 °F 29.94 in East 3.9 mph 5.8 mph 98 % 0.00 in
08:19 39.8 °F 39.3 °F 29.95 in East 2.0 mph 3.5 mph 98 % 0.00 in
08:24 39.9 °F 39.4 °F 29.95 in ENE 2.3 mph 4.6 mph 98 % 0.00 in
08:29 39.9 °F 39.4 °F 29.94 in East 1.7 mph 3.0 mph 98 % 0.00 in
08:34 39.9 °F 39.4 °F 29.95 in ENE 2.7 mph 5.8 mph 98 % 0.00 in
08:39 39.9 °F 39.4 °F 29.95 in ENE 4.5 mph 6.9 mph 98 % 0.00 in
08:44 39.9 °F 39.4 °F 29.95 in ENE 2.8 mph 4.6 mph 98 % 0.00 in
08:49 39.9 °F 39.4 °F 29.95 in East 4.1 mph 6.0 mph 98 % 0.00 in
08:54 39.8 °F 39.3 °F 29.94 in East 5.4 mph 9.2 mph 98 % 0.00 in
08:59 39.8 °F 39.3 °F 29.95 in ENE 4.5 mph 7.0 mph 98 % 0.00 in
09:04 39.7 °F 39.2 °F 29.94 in ENE 4.7 mph 5.8 mph 98 % 0.00 in
09:09 39.7 °F 39.2 °F 29.94 in ENE 6.4 mph 9.2 mph 98 % 0.00 in
09:14 39.7 °F 39.2 °F 29.93 in NE 6.2 mph 8.1 mph 98 % 0.00 in
09:19 39.8 °F 39.3 °F 29.93 in ENE 5.8 mph 8.1 mph 98 % 0.00 in
09:24 39.8 °F 39.3 °F 29.93 in ENE 9.2 mph 13.0 mph 98 % 0.00 in
09:30 39.8 °F 39.3 °F 29.92 in ENE 8.3 mph 12.7 mph 98 % 0.00 in
09:35 39.9 °F 39.4 °F 29.92 in ENE 10.2 mph 13.8 mph 98 % 0.00 in
09:40 40.0 °F 39.5 °F 29.92 in East 9.3 mph 13.8 mph 98 % 0.00 in
09:45 40.1 °F 39.6 °F 29.92 in East 7.0 mph 10.4 mph 98 % 0.00 in
09:50 40.2 °F 39.7 °F 29.92 in ENE 8.0 mph 11.5 mph 98 % 0.00 in
09:55 40.2 °F 39.7 °F 29.93 in ENE 6.7 mph 9.2 mph 98 % 0.00 in
10:00 40.2 °F 39.7 °F 29.92 in NE 10.3 mph 12.7 mph 98 % 0.00 in
10:05 40.2 °F 39.7 °F 29.92 in East 10.1 mph 12.0 mph 98 % 0.00 in
10:10 40.1 °F 39.6 °F 29.93 in East 6.1 mph 13.8 mph 98 % 0.00 in
10:15 40.2 °F 39.7 °F 29.93 in East 5.0 mph 6.0 mph 98 % 0.00 in
10:20 40.3 °F 39.8 °F 29.93 in East 5.0 mph 8.0 mph 98 % 0.00 in
10:25 40.3 °F 39.8 °F 29.93 in ENE 7.1 mph 9.0 mph 98 % 0.00 in
10:30 40.3 °F 39.8 °F 29.94 in East 4.4 mph 4.6 mph 98 % 0.00 in
10:35 40.3 °F 39.8 °F 29.94 in ENE 3.6 mph 8.1 mph 98 % 0.00 in
10:41 40.3 °F 39.8 °F 29.94 in East 4.8 mph 6.9 mph 98 % 0.00 in
10:46 40.3 °F 39.8 °F 29.94 in ENE 4.1 mph 5.0 mph 98 % 0.00 in
10:51 40.2 °F 39.7 °F 29.95 in ENE 1.9 mph 3.5 mph 98 % 0.00 in
10:56 40.2 °F 39.7 °F 29.95 in NNE 2.1 mph 3.5 mph 98 % 0.00 in
11:01 40.2 °F 39.7 °F 29.94 in NNE 1.0 mph 2.3 mph 98 % 0.00 in
11:06 40.2 °F 39.7 °F 29.95 in ENE 2.3 mph 3.5 mph 98 % 0.00 in
11:11 40.2 °F 39.7 °F 29.95 in ENE 0.5 mph 2.3 mph 98 % 0.00 in
11:16 40.2 °F 39.7 °F 29.94 in ENE 2.8 mph 4.0 mph 98 % 0.00 in
11:21 40.2 °F 39.7 °F 29.95 in ENE 0.8 mph 2.0 mph 98 % 0.00 in
11:26 40.1 °F 39.6 °F 29.96 in Calm     98 % 0.00 in
11:31 40.1 °F 39.6 °F 29.97 in West 0.9 mph 3.0 mph 98 % 0.00 in
11:36 40.1 °F 39.6 °F 29.97 in Calm     98 % 0.00 in
11:41 40.2 °F 39.7 °F 29.97 in Calm     98 % 0.00 in
11:46 40.2 °F 39.7 °F 29.97 in Calm     98 % 0.00 in
11:51 40.2 °F 39.7 °F 29.97 in West 0.8 mph 2.0 mph 98 % 0.00 in
11:56 40.3 °F 39.8 °F 29.96 in NE 1.7 mph 3.5 mph 98 % 0.00 in
12:01 40.2 °F 39.7 °F 29.95 in ENE 3.0 mph 5.0 mph 98 % 0.00 in
12:07 40.1 °F 39.6 °F 29.95 in ENE 3.3 mph 5.0 mph 98 % 0.00 in
12:09 40.1 °F 39.6 °F 29.95 in ENE 3.6 mph 5.0 mph 98 % 0.00 in
12:14 40.0 °F 39.5 °F 29.94 in ENE 3.8 mph 6.9 mph 98 % 0.00 in
12:19 40.0 °F 39.5 °F 29.93 in ENE 5.2 mph 7.0 mph 98 % 0.00 in
12:24 39.9 °F 39.4 °F 29.92 in East 6.6 mph 10.0 mph 98 % 0.00 in
12:29 39.9 °F 39.4 °F 29.92 in East 5.5 mph 10.4 mph 98 % 0.00 in
12:34 39.9 °F 39.4 °F 29.92 in NE 5.9 mph 10.4 mph 98 % 0.00 in
12:39 39.9 °F 39.4 °F 29.91 in East 7.5 mph 10.4 mph 98 % 0.00 in
12:44 39.9 °F 39.4 °F 29.91 in ENE 5.5 mph 9.2 mph 98 % 0.00 in
12:50 39.9 °F 39.4 °F 29.92 in East 6.2 mph 8.1 mph 98 % 0.00 in
12:55 40.0 °F 39.5 °F 29.92 in ENE 5.2 mph 7.0 mph 98 % 0.00 in
12:59 40.0 °F 39.5 °F 29.91 in East 7.4 mph 10.0 mph 98 % 0.00 in
13:05 40.0 °F 39.5 °F 29.91 in East 6.3 mph 9.2 mph 98 % 0.00 in
13:10 39.9 °F 39.4 °F 29.90 in East 7.0 mph 9.2 mph 98 % 0.00 in
13:15 39.8 °F 39.3 °F 29.91 in ESE 5.9 mph 9.2 mph 98 % 0.00 in
13:20 39.8 °F 39.3 °F 29.91 in East 7.5 mph 9.2 mph 98 % 0.00 in
13:22 39.8 °F 39.3 °F 29.91 in East 6.3 mph 8.1 mph 98 % 0.00 in
13:27 39.8 °F 39.3 °F 29.91 in East 5.6 mph 7.0 mph 98 % 0.00 in
13:28 39.8 °F 39.3 °F 29.91 in East 5.5 mph 7.0 mph 98 % 0.00 in
13:33 39.8 °F 39.3 °F 29.91 in East 6.1 mph 7.0 mph 98 % 0.00 in
13:38 40.0 °F 39.5 °F 29.91 in East 5.9 mph 7.0 mph 98 % 0.00 in
13:43 40.1 °F 39.6 °F 29.91 in East 4.8 mph 6.0 mph 98 % 0.00 in
13:48 40.2 °F 39.7 °F 29.90 in East 7.0 mph 8.1 mph 98 % 0.00 in
13:53 40.4 °F 39.9 °F 29.90 in East 7.1 mph 10.0 mph 98 % 0.00 in
13:58 40.5 °F 40.0 °F 29.90 in East 5.7 mph 9.2 mph 98 % 0.00 in
14:03 40.6 °F 40.1 °F 29.90 in ENE 4.7 mph 8.1 mph 98 % 0.00 in
14:08 40.6 °F 40.1 °F 29.91 in ENE 4.2 mph 4.6 mph 98 % 0.00 in
14:13 40.6 °F 40.1 °F 29.91 in ENE 4.5 mph 5.8 mph 98 % 0.00 in
14:18 40.6 °F 40.1 °F 29.91 in ENE 3.5 mph 5.8 mph 98 % 0.00 in
14:23 40.5 °F 40.0 °F 29.91 in ENE 5.0 mph 7.0 mph 98 % 0.00 in
14:28 40.5 °F 40.0 °F 29.91 in East 4.8 mph 5.8 mph 98 % 0.00 in
14:38 40.4 °F 39.9 °F 29.91 in ENE 3.1 mph 5.8 mph 98 % 0.00 in
14:43 40.4 °F 39.9 °F 29.91 in East 5.7 mph 9.2 mph 98 % 0.00 in
14:49 40.3 °F 39.8 °F 29.91 in ENE 5.5 mph 10.4 mph 98 % 0.00 in
14:54 40.1 °F 39.6 °F 29.91 in NE 4.9 mph 10.4 mph 98 % 0.00 in
14:59 39.9 °F 39.4 °F 29.90 in ENE 6.8 mph 10.4 mph 98 % 0.00 in
15:04 39.9 °F 39.4 °F 29.90 in ENE 3.8 mph 6.9 mph 98 % 0.00 in
15:09 39.8 °F 39.3 °F 29.90 in ENE 7.6 mph 13.8 mph 98 % 0.00 in
15:14 39.7 °F 39.2 °F 29.89 in ENE 5.3 mph 10.4 mph 98 % 0.00 in
15:19 39.6 °F 39.1 °F 29.89 in ENE 9.5 mph 13.8 mph 98 % 0.00 in
15:24 39.6 °F 39.1 °F 29.89 in ENE 7.3 mph 9.2 mph 98 % 0.00 in
15:29 39.6 °F 39.1 °F 29.89 in ENE 6.8 mph 9.2 mph 98 % 0.00 in
15:34 39.6 °F 39.1 °F 29.88 in ENE 6.9 mph 10.4 mph 98 % 0.00 in
15:39 39.6 °F 39.1 °F 29.88 in ENE 7.2 mph 9.2 mph 98 % 0.00 in
15:44 39.6 °F 39.1 °F 29.86 in ENE 8.8 mph 13.8 mph 98 % 0.00 in
15:49 39.6 °F 39.1 °F 29.86 in East 11.0 mph 15.0 mph 98 % 0.00 in
15:54 39.6 °F 39.1 °F 29.86 in ENE 7.4 mph 16.1 mph 98 % 0.00 in
15:59 39.5 °F 39.0 °F 29.85 in East 10.8 mph 17.3 mph 98 % 0.00 in
16:04 39.5 °F 39.0 °F 29.85 in East 8.6 mph 11.5 mph 98 % 0.00 in
16:09 39.6 °F 39.1 °F 29.86 in ENE 6.6 mph 10.4 mph 98 % 0.00 in
16:14 39.7 °F 39.2 °F 29.86 in ESE 7.5 mph 10.4 mph 98 % 0.00 in
16:20 39.8 °F 39.3 °F 29.86 in East 6.6 mph 9.2 mph 98 % 0.00 in
16:25 39.9 °F 39.4 °F 29.86 in East 8.3 mph 11.5 mph 98 % 0.00 in
16:30 40.0 °F 39.5 °F 29.87 in East 7.7 mph 9.2 mph 98 % 0.00 in
16:35 39.9 °F 39.4 °F 29.87 in East 9.0 mph 11.5 mph 98 % 0.00 in
16:40 40.0 °F 39.5 °F 29.86 in East 7.0 mph 10.4 mph 98 % 0.00 in
16:45 39.9 °F 39.4 °F 29.86 in East 6.1 mph 8.1 mph 98 % 0.00 in
16:50 39.9 °F 39.4 °F 29.86 in East 6.6 mph 9.2 mph 98 % 0.00 in
16:55 39.8 °F 39.3 °F 29.86 in ENE 7.0 mph 8.1 mph 98 % 0.00 in
17:00 39.8 °F 39.3 °F 29.85 in East 7.8 mph 10.4 mph 98 % 0.00 in
17:05 39.7 °F 39.2 °F 29.85 in East 7.6 mph 10.4 mph 98 % 0.00 in
17:10 39.6 °F 39.1 °F 29.86 in ENE 4.7 mph 8.1 mph 98 % 0.00 in
17:15 39.6 °F 39.1 °F 29.86 in ENE 5.8 mph 9.2 mph 98 % 0.00 in
17:20 39.6 °F 39.1 °F 29.87 in ENE 5.8 mph 9.2 mph 98 % 0.00 in
17:25 39.6 °F 39.1 °F 29.87 in East 6.0 mph 8.1 mph 98 % 0.00 in
17:30 39.6 °F 39.1 °F 29.87 in ENE 7.1 mph 9.0 mph 98 % 0.00 in
17:35 39.6 °F 39.1 °F 29.86 in NE 6.5 mph 11.5 mph 98 % 0.00 in
17:40 39.5 °F 39.0 °F 29.86 in ENE 6.7 mph 9.2 mph 98 % 0.00 in
17:45 39.5 °F 39.0 °F 29.86 in ENE 7.1 mph 10.4 mph 98 % 0.00 in
17:50 39.4 °F 38.9 °F 29.86 in East 7.7 mph 13.8 mph 98 % 0.00 in
17:55 39.4 °F 38.9 °F 29.86 in East 9.0 mph 11.5 mph 98 % 0.00 in
18:00 39.4 °F 38.9 °F 29.85 in ENE 9.1 mph 13.8 mph 98 % 0.00 in
18:05 39.4 °F 38.9 °F 29.85 in NE 10.0 mph 12.7 mph 98 % 0.00 in
18:10 39.3 °F 38.8 °F 29.85 in ENE 8.4 mph 11.5 mph 98 % 0.00 in
18:15 39.3 °F 38.8 °F 29.86 in ENE 9.4 mph 12.0 mph 98 % 0.00 in
18:20 39.3 °F 38.8 °F 29.86 in ENE 7.3 mph 11.5 mph 98 % 0.00 in
18:25 39.4 °F 38.9 °F 29.87 in NE 7.7 mph 11.5 mph 98 % 0.00 in
18:30 39.4 °F 38.9 °F 29.87 in East 7.2 mph 11.5 mph 98 % 0.00 in
18:35 39.5 °F 39.0 °F 29.87 in ENE 6.9 mph 11.5 mph 98 % 0.00 in
18:40 39.5 °F 39.0 °F 29.88 in ENE 7.0 mph 9.2 mph 98 % 0.00 in
18:45 39.5 °F 39.0 °F 29.88 in ENE 7.0 mph 10.0 mph 98 % 0.00 in
18:50 39.5 °F 39.0 °F 29.88 in ENE 7.9 mph 9.2 mph 98 % 0.00 in
18:55 39.5 °F 39.0 °F 29.88 in ENE 6.5 mph 10.4 mph 98 % 0.00 in
19:00 39.6 °F 39.1 °F 29.88 in East 8.7 mph 11.5 mph 98 % 0.00 in
19:05 39.6 °F 39.1 °F 29.87 in NE 7.3 mph 11.5 mph 98 % 0.00 in
19:10 39.7 °F 39.2 °F 29.88 in ENE 7.1 mph 11.5 mph 98 % 0.00 in
19:15 39.8 °F 39.3 °F 29.88 in ENE 7.7 mph 11.5 mph 98 % 0.00 in
19:20 39.8 °F 39.3 °F 29.88 in ENE 7.6 mph 9.2 mph 98 % 0.00 in
19:25 39.9 °F 39.4 °F 29.88 in East 6.8 mph 9.2 mph 98 % 0.00 in
19:30 40.0 °F 39.5 °F 29.88 in East 6.1 mph 8.1 mph 98 % 0.01 in
19:35 40.0 °F 39.5 °F 29.88 in ENE 5.0 mph 9.0 mph 98 % 0.02 in
19:40 40.0 °F 39.5 °F 29.88 in ENE 7.0 mph 11.5 mph 98 % 0.03 in
19:45 40.1 °F 39.6 °F 29.88 in ENE 6.1 mph 9.2 mph 98 % 0.04 in
19:50 40.1 °F 39.6 °F 29.88 in ENE 6.7 mph 9.2 mph 98 % 0.04 in
19:56 40.1 °F 39.6 °F 29.88 in NE 8.4 mph 10.4 mph 98 % 0.04 in
20:01 40.1 °F 39.6 °F 29.88 in East 5.7 mph 10.4 mph 98 % 0.04 in
20:06 40.1 °F 39.6 °F 29.89 in ENE 4.6 mph 7.0 mph 98 % 0.06 in
20:11 40.2 °F 39.7 °F 29.89 in ENE 5.3 mph 8.1 mph 98 % 0.08 in
20:16 40.2 °F 39.7 °F 29.89 in ENE 5.5 mph 8.1 mph 98 % 0.11 in
20:21 40.2 °F 39.7 °F 29.89 in ENE 4.3 mph 6.9 mph 98 % 0.14 in
20:26 40.2 °F 39.7 °F 29.89 in ENE 3.5 mph 5.8 mph 98 % 0.16 in
20:31 40.2 °F 39.7 °F 29.89 in ENE 4.5 mph 6.9 mph 98 % 0.19 in
20:36 40.2 °F 39.7 °F 29.89 in East 4.6 mph 6.9 mph 98 % 0.19 in
20:41 40.2 °F 39.7 °F 29.89 in East 4.2 mph 6.0 mph 98 % 0.22 in
20:46 40.2 °F 39.7 °F 29.89 in ENE 5.1 mph 5.8 mph 98 % 0.24 in
20:51 40.2 °F 39.7 °F 29.90 in East 4.5 mph 7.0 mph 98 % 0.29 in
20:56 40.2 °F 39.7 °F 29.90 in ENE 2.2 mph 3.5 mph 98 % 0.33 in
21:01 40.3 °F 39.8 °F 29.90 in ENE 2.8 mph 4.6 mph 98 % 0.36 in
21:06 40.2 °F 39.7 °F 29.90 in ENE 2.9 mph 3.5 mph 98 % 0.36 in
21:11 40.2 °F 39.7 °F 29.90 in ENE 3.0 mph 4.0 mph 98 % 0.35 in
21:16 40.2 °F 39.7 °F 29.90 in ENE 2.3 mph 3.5 mph 98 % 0.34 in
21:21 40.3 °F 39.8 °F 29.90 in ENE 2.2 mph 3.5 mph 98 % 0.32 in
21:26 40.5 °F 40.0 °F 29.90 in ENE 2.3 mph 3.5 mph 98 % 0.31 in
21:31 40.5 °F 40.0 °F 29.90 in ENE 3.0 mph 3.5 mph 98 % 0.28 in
21:36 40.6 °F 40.1 °F 29.90 in ENE 3.0 mph 3.5 mph 98 % 0.26 in
21:41 40.7 °F 40.2 °F 29.91 in ENE 2.3 mph 3.5 mph 98 % 0.23 in
21:46 40.7 °F 40.2 °F 29.90 in NE 2.1 mph 3.5 mph 98 % 0.20 in
21:51 40.7 °F 40.2 °F 29.90 in ENE 1.4 mph 2.3 mph 98 % 0.15 in
21:56 40.6 °F 40.1 °F 29.90 in NNE 0.9 mph 3.5 mph 98 % 0.11 in
22:01 40.6 °F 40.1 °F 29.90 in NNE 3.1 mph 3.5 mph 98 % 0.08 in
22:06 40.5 °F 40.0 °F 29.91 in NNE 3.3 mph 3.5 mph 98 % 0.06 in
22:11 40.4 °F 39.9 °F 29.90 in NNE 1.4 mph 3.5 mph 98 % 0.05 in
22:16 40.4 °F 39.9 °F 29.91 in NNE 1.0 mph 2.3 mph 98 % 0.03 in
22:21 40.3 °F 39.8 °F 29.90 in NNE 1.3 mph 3.5 mph 98 % 0.02 in
22:26 40.2 °F 39.7 °F 29.90 in NNE 1.1 mph 1.1 mph 98 % 0.01 in
22:31 40.2 °F 39.7 °F 29.90 in NNE 0.5 mph 2.3 mph 98 % 0.00 in
22:36 40.2 °F 39.7 °F 29.90 in NNE 0.3 mph 1.2 mph 98 % 0.00 in
22:41 40.1 °F 39.6 °F 29.90 in Calm   1.2 mph 98 % 0.00 in
22:46 40.1 °F 39.6 °F 29.90 in ENE 1.9 mph 3.5 mph 98 % 0.00 in
22:51 40.0 °F 39.5 °F 29.90 in NE 0.8 mph 2.3 mph 98 % 0.00 in
22:57 40.0 °F 39.5 °F 29.90 in ENE 2.8 mph 4.6 mph 98 % 0.00 in
23:02 39.9 °F 39.4 °F 29.90 in ENE 1.4 mph 3.5 mph 98 % 0.00 in
23:07 39.9 °F 39.4 °F 29.90 in ENE 0.1 mph 2.3 mph 98 % 0.00 in
23:12 39.9 °F 39.4 °F 29.90 in NE 0.6 mph 1.2 mph 98 % 0.00 in
23:17 39.9 °F 39.4 °F 29.90 in NE 0.1 mph 1.2 mph 98 % 0.00 in
23:22 39.9 °F 39.4 °F 29.90 in Calm   1.2 mph 98 % 0.00 in
23:27 39.9 °F 39.4 °F 29.90 in NE 0.1 mph 1.2 mph 98 % 0.00 in
23:32 39.9 °F 39.4 °F 29.90 in Calm     98 % 0.00 in
23:37 39.9 °F 39.4 °F 29.90 in Calm     98 % 0.00 in
23:42 39.9 °F 39.4 °F 29.89 in NE 0.3 mph 1.2 mph 98 % 0.00 in
23:47 39.9 °F 39.4 °F 29.89 in NE 0.4 mph 2.3 mph 98 % 0.00 in
23:52 39.9 °F 39.4 °F 29.89 in NE 0.1 mph 1.2 mph 98 % 0.00 in
23:57 39.9 °F 39.4 °F 29.90 in NE 0.1 mph 1.2 mph 98 % 0.00 in
Crab Meadow Weather
Compliments of Weather Underground - 3 mb

Script developed by  Jim McMurry - jmcmurry@mwt.net Adapted for the template by  Wim van der Kuil - Leuven-Template.eu

Lightning: Lightning is equivalent to the electric power of 100 million light bulbs in your face.